createdAt,value
2022-08-29T00:00:34.380Z,23.37
2022-08-29T00:01:34.402Z,23.39
2022-08-29T00:02:34.400Z,23.39
2022-08-29T00:03:34.340Z,23.40
2022-08-29T00:04:34.390Z,23.41
2022-08-29T00:05:34.346Z,23.41
2022-08-29T00:06:34.357Z,23.44
2022-08-29T00:07:34.299Z,23.46
2022-08-29T00:08:34.345Z,23.47
2022-08-29T00:09:34.340Z,23.48
2022-08-29T00:10:34.290Z,23.50
2022-08-29T00:11:34.306Z,23.50
2022-08-29T00:12:34.999Z,23.51
2022-08-29T00:13:34.256Z,23.51
2022-08-29T00:14:34.221Z,23.54
2022-08-29T00:15:35.142Z,23.54
2022-08-29T00:16:35.241Z,23.54
2022-08-29T00:17:34.305Z,23.54
2022-08-29T00:18:34.190Z,23.55
2022-08-29T00:19:34.170Z,23.55
2022-08-29T00:20:34.786Z,23.56
2022-08-29T00:21:34.235Z,23.56
2022-08-29T00:22:34.180Z,23.56
2022-08-29T00:23:34.140Z,23.56
2022-08-29T00:24:34.117Z,23.56
2022-08-29T00:25:34.121Z,23.58
2022-08-29T00:26:34.089Z,23.56
2022-08-29T00:27:34.085Z,23.56
2022-08-29T00:28:34.057Z,23.58
2022-08-29T00:29:34.549Z,23.59
2022-08-29T00:30:34.066Z,23.58
2022-08-29T00:31:34.138Z,23.59
2022-08-29T00:32:34.030Z,23.58
2022-08-29T00:33:34.033Z,23.58
2022-08-29T00:34:34.168Z,23.59
2022-08-29T00:35:33.993Z,23.59
2022-08-29T00:36:34.010Z,23.59
2022-08-29T00:37:33.979Z,23.61
2022-08-29T00:38:33.970Z,23.61
2022-08-29T00:39:33.950Z,23.59
2022-08-29T00:40:34.060Z,23.59
2022-08-29T00:41:33.925Z,23.61
2022-08-29T00:42:33.896Z,23.59
2022-08-29T00:43:34.649Z,23.61
2022-08-29T00:44:33.901Z,23.61
2022-08-29T00:45:33.928Z,23.59
2022-08-29T00:46:33.867Z,23.61
2022-08-29T00:47:33.870Z,23.59
2022-08-29T00:48:33.856Z,23.61
2022-08-29T00:49:33.855Z,23.62
2022-08-29T00:50:33.816Z,23.61
2022-08-29T00:51:33.861Z,23.62
2022-08-29T00:52:33.812Z,23.61
2022-08-29T00:53:33.843Z,23.61
2022-08-29T00:54:33.815Z,23.61
2022-08-29T00:55:33.779Z,23.62
2022-08-29T00:56:33.770Z,23.62
2022-08-29T00:57:33.819Z,23.61
2022-08-29T00:58:33.872Z,23.61
2022-08-29T00:59:33.783Z,23.62
2022-08-29T01:00:33.755Z,23.62
2022-08-29T01:01:33.990Z,23.62
2022-08-29T01:02:36.242Z,23.61
2022-08-29T01:03:34.700Z,23.62
2022-08-29T01:04:33.678Z,23.62
2022-08-29T01:05:33.672Z,23.61
2022-08-29T01:06:33.653Z,23.62
2022-08-29T01:07:33.671Z,23.61
2022-08-29T01:08:33.624Z,23.62
2022-08-29T01:09:33.638Z,23.62
2022-08-29T01:10:33.621Z,23.62
2022-08-29T01:11:33.625Z,23.62
2022-08-29T01:12:33.599Z,23.61
2022-08-29T01:13:33.608Z,23.62
2022-08-29T01:14:37.836Z,23.62
2022-08-29T01:15:34.583Z,23.61
2022-08-29T01:16:33.620Z,23.62
2022-08-29T01:17:33.550Z,23.61
2022-08-29T01:18:33.517Z,23.61
2022-08-29T01:19:33.548Z,23.62
2022-08-29T01:20:33.987Z,23.62
2022-08-29T01:21:33.494Z,23.62
2022-08-29T01:22:33.475Z,23.62
2022-08-29T01:23:33.488Z,23.62
2022-08-29T01:24:33.489Z,23.61
2022-08-29T01:25:33.475Z,23.61
2022-08-29T01:26:33.451Z,23.61
2022-08-29T01:27:33.426Z,23.61
2022-08-29T01:28:33.429Z,23.62
2022-08-29T01:29:33.424Z,23.61
2022-08-29T01:30:33.386Z,23.61
2022-08-29T01:31:55.751Z,23.62
2022-08-29T01:32:34.385Z,23.62
2022-08-29T01:33:33.379Z,23.61
2022-08-29T01:34:33.371Z,23.62
2022-08-29T01:35:33.660Z,23.62
2022-08-29T01:36:33.355Z,23.61
2022-08-29T01:37:33.322Z,23.62
2022-08-29T01:38:33.314Z,23.61
2022-08-29T01:39:33.319Z,23.62
2022-08-29T01:40:33.341Z,23.62
2022-08-29T01:41:33.275Z,23.61
2022-08-29T01:42:36.637Z,23.62
2022-08-29T01:43:33.264Z,23.61
2022-08-29T01:44:33.245Z,23.62
2022-08-29T01:45:33.300Z,23.62
2022-08-29T01:46:33.237Z,23.62
2022-08-29T01:47:33.434Z,23.61
2022-08-29T01:48:33.195Z,23.62
2022-08-29T01:49:33.208Z,23.61
2022-08-29T01:50:33.183Z,23.61
2022-08-29T01:51:33.188Z,23.61
2022-08-29T01:52:33.168Z,23.62
2022-08-29T01:53:33.158Z,23.61
2022-08-29T01:54:33.166Z,23.61
2022-08-29T01:55:33.138Z,23.62
2022-08-29T01:56:33.117Z,23.61
2022-08-29T01:57:33.165Z,23.61
2022-08-29T01:58:33.105Z,23.62
2022-08-29T01:59:33.084Z,23.61
2022-08-29T02:00:33.101Z,23.61
2022-08-29T02:01:33.131Z,23.61
2022-08-29T02:02:33.162Z,23.61
2022-08-29T02:03:33.047Z,23.59
2022-08-29T02:04:33.022Z,23.61
2022-08-29T02:05:33.037Z,23.59
2022-08-29T02:06:33.014Z,23.61
2022-08-29T02:07:33.007Z,23.59
2022-08-29T02:08:32.992Z,23.61
2022-08-29T02:09:32.988Z,23.59
2022-08-29T02:10:32.975Z,23.61
2022-08-29T02:11:32.968Z,23.61
2022-08-29T02:12:32.954Z,23.59
2022-08-29T02:13:32.935Z,23.59
2022-08-29T02:14:32.928Z,23.59
2022-08-29T02:15:32.915Z,23.59
2022-08-29T02:16:32.935Z,23.59
2022-08-29T02:17:32.910Z,23.59
2022-08-29T02:18:32.888Z,23.61
2022-08-29T02:19:32.887Z,23.59
2022-08-29T02:20:32.887Z,23.59
2022-08-29T02:21:32.867Z,23.58
2022-08-29T02:22:32.827Z,23.58
2022-08-29T02:23:32.837Z,23.58
2022-08-29T02:24:32.843Z,23.61
2022-08-29T02:25:32.808Z,23.59
2022-08-29T02:26:32.797Z,23.58
2022-08-29T02:27:32.854Z,23.59
2022-08-29T02:28:32.778Z,23.59
2022-08-29T02:29:37.938Z,23.58
2022-08-29T02:30:33.757Z,23.58
2022-08-29T02:31:32.774Z,23.58
2022-08-29T02:32:32.748Z,23.59
2022-08-29T02:33:32.741Z,23.58
2022-08-29T02:34:32.730Z,23.59
2022-08-29T02:35:35.058Z,23.58
2022-08-29T02:36:32.681Z,23.58
2022-08-29T02:37:32.717Z,23.56
2022-08-29T02:38:32.654Z,23.59
2022-08-29T02:39:32.666Z,23.59
2022-08-29T02:40:32.714Z,23.58
2022-08-29T02:41:32.625Z,23.58
2022-08-29T02:42:32.637Z,23.58
2022-08-29T02:43:32.647Z,23.58
2022-08-29T02:44:32.595Z,23.58
2022-08-29T02:45:32.607Z,23.58
2022-08-29T02:46:32.600Z,23.58
2022-08-29T02:47:32.904Z,23.58
2022-08-29T02:48:32.555Z,23.58
2022-08-29T02:49:32.564Z,23.58
2022-08-29T02:50:33.354Z,23.58
2022-08-29T02:51:32.524Z,23.59
2022-08-29T02:52:37.115Z,23.59
2022-08-29T02:53:32.524Z,23.58
2022-08-29T02:54:32.517Z,23.59
2022-08-29T02:55:32.497Z,23.58
2022-08-29T02:56:32.476Z,23.56
2022-08-29T02:57:32.489Z,23.58
2022-08-29T02:58:32.447Z,23.56
2022-08-29T02:59:32.462Z,23.56
2022-08-29T03:00:32.469Z,23.56
2022-08-29T03:01:32.499Z,23.56
2022-08-29T03:02:32.413Z,23.58
2022-08-29T03:03:32.407Z,23.58
2022-08-29T03:04:32.385Z,23.58
2022-08-29T03:05:32.382Z,23.58
2022-08-29T03:06:32.363Z,23.56
2022-08-29T03:07:32.367Z,23.56
2022-08-29T03:08:32.370Z,23.56
2022-08-29T03:09:32.347Z,23.56
2022-08-29T03:10:32.344Z,23.58
2022-08-29T03:11:32.326Z,23.58
2022-08-29T03:12:32.330Z,23.56
2022-08-29T03:13:32.297Z,23.56
2022-08-29T03:14:32.295Z,23.56
2022-08-29T03:15:32.273Z,23.56
2022-08-29T03:16:34.269Z,23.56
2022-08-29T03:17:32.242Z,23.56
2022-08-29T03:18:32.246Z,23.58
2022-08-29T03:19:32.226Z,23.56
2022-08-29T03:20:33.236Z,23.56
2022-08-29T03:21:32.237Z,23.56
2022-08-29T03:22:32.247Z,23.56
2022-08-29T03:23:32.254Z,23.56
2022-08-29T03:24:32.187Z,23.56
2022-08-29T03:25:32.186Z,23.56
2022-08-29T03:26:32.142Z,23.56
2022-08-29T03:27:32.186Z,23.56
2022-08-29T03:28:32.136Z,23.56
2022-08-29T03:29:32.146Z,23.56
2022-08-29T03:30:32.122Z,23.56
2022-08-29T03:31:32.189Z,23.58
2022-08-29T03:32:32.128Z,23.56
2022-08-29T03:33:32.097Z,23.58
2022-08-29T03:34:32.076Z,23.56
2022-08-29T03:35:32.108Z,23.56
2022-08-29T03:36:32.042Z,23.56
2022-08-29T03:37:32.041Z,23.56
2022-08-29T03:38:32.043Z,23.55
2022-08-29T03:39:32.037Z,23.55
2022-08-29T03:40:32.111Z,23.56
2022-08-29T03:41:32.007Z,23.55
2022-08-29T03:42:31.996Z,23.55
2022-08-29T03:43:31.999Z,23.55
2022-08-29T03:44:31.975Z,23.55
2022-08-29T03:45:31.966Z,23.56
2022-08-29T03:46:31.983Z,23.55
2022-08-29T03:47:31.952Z,23.56
2022-08-29T03:48:31.921Z,23.54
2022-08-29T03:49:31.944Z,23.54
2022-08-29T03:50:31.891Z,23.55
2022-08-29T03:51:31.899Z,23.55
2022-08-29T03:52:31.893Z,23.55
2022-08-29T03:53:31.862Z,23.55
2022-08-29T03:54:31.866Z,23.55
2022-08-29T03:55:31.879Z,23.54
2022-08-29T03:56:31.845Z,23.55
2022-08-29T03:57:31.811Z,23.54
2022-08-29T03:58:31.836Z,23.55
2022-08-29T03:59:31.811Z,23.55
2022-08-29T04:00:31.792Z,23.55
2022-08-29T04:01:31.823Z,23.55
2022-08-29T04:02:31.830Z,23.55
2022-08-29T04:03:31.765Z,23.54
2022-08-29T04:04:31.757Z,23.54
2022-08-29T04:05:31.736Z,23.55
2022-08-29T04:06:31.754Z,23.54
2022-08-29T04:07:31.734Z,23.55
2022-08-29T04:08:31.731Z,23.54
2022-08-29T04:09:31.705Z,23.54
2022-08-29T04:10:31.703Z,23.54
2022-08-29T04:11:31.708Z,23.54
2022-08-29T04:12:31.662Z,23.54
2022-08-29T04:13:31.655Z,23.54
2022-08-29T04:14:31.642Z,23.54
2022-08-29T04:15:31.666Z,23.54
2022-08-29T04:16:31.706Z,23.54
2022-08-29T04:17:31.625Z,23.54
2022-08-29T04:18:31.613Z,23.54
2022-08-29T04:19:31.594Z,23.54
2022-08-29T04:20:31.565Z,23.51
2022-08-29T04:21:31.570Z,23.54
2022-08-29T04:22:31.574Z,23.54
2022-08-29T04:23:31.536Z,23.54
2022-08-29T04:24:31.557Z,23.54
2022-08-29T04:25:35.137Z,23.51
2022-08-29T04:26:36.964Z,23.54
2022-08-29T04:27:31.490Z,23.51
2022-08-29T04:28:31.527Z,23.54
2022-08-29T04:29:31.484Z,23.51
2022-08-29T04:30:31.451Z,23.51
2022-08-29T04:31:31.606Z,23.54
2022-08-29T04:32:31.446Z,23.51
2022-08-29T04:33:31.441Z,23.54
2022-08-29T04:34:31.431Z,23.50
2022-08-29T04:35:31.426Z,23.50
2022-08-29T04:36:31.444Z,23.50
2022-08-29T04:37:31.420Z,23.50
2022-08-29T04:38:31.379Z,23.51
2022-08-29T04:39:31.361Z,23.51
2022-08-29T04:40:31.425Z,23.51
2022-08-29T04:41:33.143Z,23.51
2022-08-29T04:42:31.341Z,23.51
2022-08-29T04:43:31.341Z,23.51
2022-08-29T04:44:31.320Z,23.51
2022-08-29T04:45:31.331Z,23.51
2022-08-29T04:46:31.337Z,23.51
2022-08-29T04:47:31.313Z,23.51
2022-08-29T04:48:31.286Z,23.50
2022-08-29T04:49:31.304Z,23.51
2022-08-29T04:50:31.257Z,23.51
2022-08-29T04:51:31.232Z,23.51
2022-08-29T04:52:31.243Z,23.51
2022-08-29T04:53:31.225Z,23.51
2022-08-29T04:54:31.236Z,23.50
2022-08-29T04:55:31.205Z,23.50
2022-08-29T04:56:31.191Z,23.51
2022-08-29T04:57:31.168Z,23.51
2022-08-29T04:58:31.162Z,23.50
2022-08-29T04:59:31.184Z,23.50
2022-08-29T05:00:31.143Z,23.51
2022-08-29T05:01:31.198Z,23.50
2022-08-29T05:02:31.158Z,23.48
2022-08-29T05:03:31.113Z,23.50
2022-08-29T05:04:31.111Z,23.50
2022-08-29T05:05:31.091Z,23.50
2022-08-29T05:06:31.070Z,23.50
2022-08-29T05:07:31.065Z,23.50
2022-08-29T05:08:31.051Z,23.50
2022-08-29T05:09:31.053Z,23.48
2022-08-29T05:10:31.043Z,23.48
2022-08-29T05:11:31.033Z,23.50
2022-08-29T05:12:31.034Z,23.50
2022-08-29T05:13:31.005Z,23.51
2022-08-29T05:14:30.990Z,23.50
2022-08-29T05:15:31.029Z,23.48
2022-08-29T05:16:39.042Z,23.50
2022-08-29T05:17:30.947Z,23.50
2022-08-29T05:18:30.948Z,23.48
2022-08-29T05:19:34.446Z,23.50
2022-08-29T05:20:30.965Z,23.50
2022-08-29T05:21:30.911Z,23.48
2022-08-29T05:22:30.920Z,23.48
2022-08-29T05:23:30.896Z,23.50
2022-08-29T05:24:30.900Z,23.48
2022-08-29T05:25:30.880Z,23.50
2022-08-29T05:26:30.871Z,23.48
2022-08-29T05:27:30.868Z,23.48
2022-08-29T05:28:30.856Z,23.48
2022-08-29T05:29:30.818Z,23.47
2022-08-29T05:30:34.619Z,23.50
2022-08-29T05:31:30.855Z,23.48
2022-08-29T05:32:30.827Z,23.48
2022-08-29T05:33:30.778Z,23.48
2022-08-29T05:34:33.988Z,23.48
2022-08-29T05:35:30.757Z,23.48
2022-08-29T05:36:30.777Z,23.50
2022-08-29T05:37:30.755Z,23.48
2022-08-29T05:38:30.726Z,23.48
2022-08-29T05:39:30.742Z,23.48
2022-08-29T05:40:30.777Z,23.48
2022-08-29T05:41:30.712Z,23.48
2022-08-29T05:42:31.683Z,23.48
2022-08-29T05:43:30.710Z,23.48
2022-08-29T05:44:34.922Z,23.48
2022-08-29T05:45:30.666Z,23.48
2022-08-29T05:46:30.732Z,23.48
2022-08-29T05:47:30.664Z,23.48
2022-08-29T05:48:30.641Z,23.48
2022-08-29T05:49:30.641Z,23.47
2022-08-29T05:50:30.630Z,23.48
2022-08-29T05:51:30.650Z,23.48
2022-08-29T05:52:30.602Z,23.48
2022-08-29T05:53:30.626Z,23.47
2022-08-29T05:54:30.594Z,23.47
2022-08-29T05:55:30.596Z,23.48
2022-08-29T05:56:30.571Z,23.48
2022-08-29T05:57:30.542Z,23.47
2022-08-29T05:58:30.540Z,23.48
2022-08-29T05:59:30.551Z,23.47
2022-08-29T06:00:30.511Z,23.46
2022-08-29T06:01:32.720Z,23.47
2022-08-29T06:02:30.630Z,23.47
2022-08-29T06:03:30.658Z,23.47
2022-08-29T06:04:30.450Z,23.47
2022-08-29T06:05:30.452Z,23.47
2022-08-29T06:06:30.468Z,23.47
2022-08-29T06:07:30.442Z,23.46
2022-08-29T06:08:30.432Z,23.47
2022-08-29T06:09:30.397Z,23.46
2022-08-29T06:10:30.418Z,23.46
2022-08-29T06:11:30.419Z,23.46
2022-08-29T06:12:30.370Z,23.47
2022-08-29T06:13:30.374Z,23.47
2022-08-29T06:14:30.373Z,23.47
2022-08-29T06:15:30.423Z,23.46
2022-08-29T06:16:30.372Z,23.44
2022-08-29T06:17:30.322Z,23.46
2022-08-29T06:18:35.498Z,23.46
2022-08-29T06:19:31.301Z,23.46
2022-08-29T06:20:30.286Z,23.46
2022-08-29T06:21:30.288Z,23.46
2022-08-29T06:22:30.268Z,23.46
2022-08-29T06:23:30.239Z,23.46
2022-08-29T06:24:30.265Z,23.46
2022-08-29T06:25:39.320Z,23.46
2022-08-29T06:26:31.298Z,23.46
2022-08-29T06:27:30.212Z,23.46
2022-08-29T06:28:30.198Z,23.47
2022-08-29T06:29:30.192Z,23.46
2022-08-29T06:30:30.198Z,23.46
2022-08-29T06:31:30.203Z,23.46
2022-08-29T06:32:30.148Z,23.46
2022-08-29T06:33:30.154Z,23.46
2022-08-29T06:34:30.174Z,23.46
2022-08-29T06:35:30.129Z,23.46
2022-08-29T06:36:30.141Z,23.46
2022-08-29T06:37:30.089Z,23.47
2022-08-29T06:38:30.098Z,23.47
2022-08-29T06:39:30.096Z,23.46
2022-08-29T06:40:30.182Z,23.46
2022-08-29T06:41:30.072Z,23.46
2022-08-29T06:42:30.057Z,23.44
2022-08-29T06:43:30.030Z,23.46
2022-08-29T06:44:30.752Z,23.46
2022-08-29T06:45:30.009Z,23.46
2022-08-29T06:46:30.106Z,23.46
2022-08-29T06:47:30.022Z,23.46
2022-08-29T06:48:29.987Z,23.46
2022-08-29T06:49:29.960Z,23.44
2022-08-29T06:50:29.999Z,23.46
2022-08-29T06:51:29.964Z,23.46
2022-08-29T06:52:29.950Z,23.46
2022-08-29T06:53:32.088Z,23.46
2022-08-29T06:54:29.919Z,23.46
2022-08-29T06:55:29.920Z,23.46
2022-08-29T06:56:29.905Z,23.46
2022-08-29T06:57:29.877Z,23.46
2022-08-29T06:58:29.899Z,23.46
2022-08-29T06:59:29.872Z,23.44
2022-08-29T07:00:29.854Z,23.44
2022-08-29T07:01:29.917Z,23.44
2022-08-29T07:02:29.876Z,23.46
2022-08-29T07:03:29.849Z,23.46
2022-08-29T07:04:29.807Z,23.46
2022-08-29T07:05:29.811Z,23.46
2022-08-29T07:06:29.799Z,23.44
2022-08-29T07:07:29.776Z,23.44
2022-08-29T07:08:30.769Z,23.44
2022-08-29T07:09:29.767Z,23.44
2022-08-29T07:10:29.760Z,23.44
2022-08-29T07:11:29.763Z,23.44
2022-08-29T07:12:29.718Z,23.44
2022-08-29T07:13:29.707Z,23.44
2022-08-29T07:14:29.741Z,23.44
2022-08-29T07:15:29.760Z,23.44
2022-08-29T07:16:29.879Z,23.44
2022-08-29T07:17:29.690Z,23.46
2022-08-29T07:18:29.680Z,23.44
2022-08-29T07:19:29.647Z,23.44
2022-08-29T07:20:29.642Z,23.44
2022-08-29T07:21:29.636Z,23.44
2022-08-29T07:22:29.607Z,23.44
2022-08-29T07:23:29.605Z,23.43
2022-08-29T07:24:29.629Z,23.44
2022-08-29T07:25:29.585Z,23.44
2022-08-29T07:26:29.579Z,23.44
2022-08-29T07:27:29.570Z,23.44
2022-08-29T07:28:29.552Z,23.43
2022-08-29T07:29:29.535Z,23.44
2022-08-29T07:30:29.572Z,23.44
2022-08-29T07:31:30.928Z,23.44
2022-08-29T07:32:29.528Z,23.43
2022-08-29T07:33:29.497Z,23.43
2022-08-29T07:34:29.480Z,23.43
2022-08-29T07:35:30.726Z,23.43
2022-08-29T07:36:29.483Z,23.43
2022-08-29T07:37:29.481Z,23.44
2022-08-29T07:38:29.459Z,23.43
2022-08-29T07:39:29.455Z,23.44
2022-08-29T07:40:29.515Z,23.43
2022-08-29T07:41:29.449Z,23.43
2022-08-29T07:42:29.406Z,23.44
2022-08-29T07:43:29.618Z,23.43
2022-08-29T07:44:34.281Z,23.43
2022-08-29T07:45:30.390Z,23.44
2022-08-29T07:46:29.440Z,23.44
2022-08-29T07:47:29.369Z,23.43
2022-08-29T07:48:29.337Z,23.43
2022-08-29T07:49:40.227Z,23.43
2022-08-29T07:50:30.320Z,23.43
2022-08-29T07:51:29.332Z,23.43
2022-08-29T07:52:29.292Z,23.43
2022-08-29T07:53:29.299Z,23.43
2022-08-29T07:54:29.284Z,23.44
2022-08-29T07:55:29.262Z,23.43
2022-08-29T07:56:29.256Z,23.44
2022-08-29T07:57:29.251Z,23.43
2022-08-29T07:58:29.241Z,23.43
2022-08-29T07:59:29.261Z,23.41
2022-08-29T08:00:29.206Z,23.43
2022-08-29T08:01:29.228Z,23.44
2022-08-29T08:02:29.237Z,23.43
2022-08-29T08:03:29.175Z,23.43
2022-08-29T08:04:29.176Z,23.41
2022-08-29T08:05:29.171Z,23.43
2022-08-29T08:06:29.151Z,23.43
2022-08-29T08:07:29.648Z,23.43
2022-08-29T08:08:29.138Z,23.43
2022-08-29T08:09:29.124Z,23.43
2022-08-29T08:10:29.149Z,23.43
2022-08-29T08:11:29.111Z,23.41
2022-08-29T08:12:29.090Z,23.41
2022-08-29T08:13:29.067Z,23.43
2022-08-29T08:14:34.798Z,23.41
2022-08-29T08:15:30.062Z,23.43
2022-08-29T08:16:29.073Z,23.41
2022-08-29T08:17:29.040Z,23.41
2022-08-29T08:18:29.041Z,23.43
2022-08-29T08:19:29.021Z,23.41
2022-08-29T08:20:29.020Z,23.41
2022-08-29T08:21:29.021Z,23.41
2022-08-29T08:22:28.982Z,23.43
2022-08-29T08:23:29.007Z,23.41
2022-08-29T08:24:29.586Z,23.43
2022-08-29T08:25:28.987Z,23.41
2022-08-29T08:26:28.926Z,23.41
2022-08-29T08:27:28.912Z,23.41
2022-08-29T08:28:28.949Z,23.40
2022-08-29T08:29:28.906Z,23.41
2022-08-29T08:30:30.844Z,23.41
2022-08-29T08:31:29.945Z,23.41
2022-08-29T08:32:32.636Z,23.43
2022-08-29T08:33:28.914Z,23.41
2022-08-29T08:34:28.846Z,23.41
2022-08-29T08:35:28.870Z,23.43
2022-08-29T08:36:28.844Z,23.41
2022-08-29T08:37:28.830Z,23.41
2022-08-29T08:38:28.826Z,23.41
2022-08-29T08:39:28.801Z,23.41
2022-08-29T08:40:28.864Z,23.43
2022-08-29T08:41:28.781Z,23.43
2022-08-29T08:42:28.850Z,23.43
2022-08-29T08:43:28.770Z,23.43
2022-08-29T08:44:28.742Z,23.43
2022-08-29T08:45:28.760Z,23.43
2022-08-29T08:46:28.909Z,23.43
2022-08-29T08:47:28.730Z,23.44
2022-08-29T08:48:28.702Z,23.43
2022-08-29T08:49:28.682Z,23.43
2022-08-29T08:50:28.688Z,23.43
2022-08-29T08:51:28.657Z,23.41
2022-08-29T08:52:28.666Z,23.44
2022-08-29T08:53:28.656Z,23.43
2022-08-29T08:54:28.642Z,23.43
2022-08-29T08:55:28.618Z,23.43
2022-08-29T08:56:28.638Z,23.43
2022-08-29T08:57:28.597Z,23.41
2022-08-29T08:58:29.226Z,23.43
2022-08-29T08:59:28.589Z,23.41
2022-08-29T09:00:28.558Z,23.40
2022-08-29T09:01:28.623Z,23.41
2022-08-29T09:02:28.582Z,23.39
2022-08-29T09:03:28.561Z,23.40
2022-08-29T09:04:28.536Z,23.40
2022-08-29T09:05:28.519Z,23.37
2022-08-29T09:06:28.503Z,23.37
2022-08-29T09:07:28.501Z,23.37
2022-08-29T09:08:28.486Z,23.37
2022-08-29T09:09:28.490Z,23.37
2022-08-29T09:10:28.450Z,23.36
2022-08-29T09:11:28.446Z,23.37
2022-08-29T09:12:28.442Z,23.37
2022-08-29T09:13:28.424Z,23.36
2022-08-29T09:14:28.439Z,23.36
2022-08-29T09:15:32.588Z,23.36
2022-08-29T09:16:28.423Z,23.36
2022-08-29T09:17:28.379Z,23.36
2022-08-29T09:18:28.379Z,23.34
2022-08-29T09:19:28.371Z,23.36
2022-08-29T09:20:28.366Z,23.34
2022-08-29T09:21:43.700Z,23.34
2022-08-29T09:22:32.771Z,23.32
2022-08-29T09:23:28.331Z,23.34
2022-08-29T09:24:28.380Z,23.32
2022-08-29T09:25:28.407Z,23.32
2022-08-29T09:26:28.297Z,23.32
2022-08-29T09:27:28.290Z,23.34
2022-08-29T09:28:30.802Z,23.32
2022-08-29T09:29:28.259Z,23.32
2022-08-29T09:30:28.295Z,23.32
2022-08-29T09:31:28.290Z,23.32
2022-08-29T09:32:28.228Z,23.34
2022-08-29T09:33:28.242Z,23.32
2022-08-29T09:34:29.210Z,23.34
2022-08-29T09:35:29.225Z,23.34
2022-08-29T09:36:28.178Z,23.36
2022-08-29T09:37:28.199Z,23.36
2022-08-29T09:38:28.203Z,23.36
2022-08-29T09:39:28.159Z,23.34
2022-08-29T09:40:28.205Z,23.36
2022-08-29T09:41:28.181Z,23.34
2022-08-29T09:42:28.116Z,23.34
2022-08-29T09:43:28.129Z,23.34
2022-08-29T09:44:28.087Z,23.36
2022-08-29T09:45:28.824Z,23.36
2022-08-29T09:46:28.141Z,23.36
2022-08-29T09:47:28.075Z,23.34
2022-08-29T09:48:31.016Z,23.34
2022-08-29T09:49:29.059Z,23.32
2022-08-29T09:50:28.016Z,23.34
2022-08-29T09:51:28.080Z,23.32
2022-08-29T09:52:28.010Z,23.32
2022-08-29T09:53:28.121Z,23.32
2022-08-29T09:54:27.996Z,23.31
2022-08-29T09:55:27.978Z,23.31
2022-08-29T09:56:27.964Z,23.31
2022-08-29T09:57:27.979Z,23.28
2022-08-29T09:58:27.952Z,23.28
2022-08-29T09:59:27.963Z,23.31
2022-08-29T10:00:27.956Z,23.31
2022-08-29T10:01:28.632Z,23.31
2022-08-29T10:02:27.998Z,23.31
2022-08-29T10:03:27.907Z,23.28
2022-08-29T10:04:27.874Z,23.28
2022-08-29T10:05:27.863Z,23.27
2022-08-29T10:06:27.845Z,23.27
2022-08-29T10:07:27.876Z,23.27
2022-08-29T10:08:27.835Z,23.27
2022-08-29T10:09:27.852Z,23.27
2022-08-29T10:10:27.814Z,23.27
2022-08-29T10:11:27.832Z,23.27
2022-08-29T10:12:27.813Z,23.27
2022-08-29T10:13:29.189Z,23.27
2022-08-29T10:14:27.783Z,23.25
2022-08-29T10:15:49.488Z,23.27
2022-08-29T10:16:28.816Z,23.27
2022-08-29T10:17:27.771Z,23.24
2022-08-29T10:18:27.826Z,23.25
2022-08-29T10:19:34.259Z,23.24
2022-08-29T10:20:28.733Z,23.25
2022-08-29T10:21:27.724Z,23.24
2022-08-29T10:22:27.682Z,23.23
2022-08-29T10:23:27.869Z,23.25
2022-08-29T10:24:27.667Z,23.25
2022-08-29T10:25:27.698Z,23.24
2022-08-29T10:26:27.905Z,23.25
2022-08-29T10:27:27.657Z,23.24
2022-08-29T10:28:27.921Z,23.24
2022-08-29T10:29:31.633Z,23.24
2022-08-29T10:30:27.892Z,23.25
2022-08-29T10:31:27.788Z,23.25
2022-08-29T10:32:27.968Z,23.24
2022-08-29T10:33:27.661Z,23.24
2022-08-29T10:34:27.586Z,23.24
2022-08-29T10:35:27.670Z,23.24
2022-08-29T10:36:27.655Z,23.23
2022-08-29T10:37:27.574Z,23.23
2022-08-29T10:38:27.557Z,23.23
2022-08-29T10:39:28.857Z,23.21
2022-08-29T10:40:27.511Z,23.23
2022-08-29T10:41:27.523Z,23.21
2022-08-29T10:42:27.480Z,23.21
2022-08-29T10:43:27.481Z,23.21
2022-08-29T10:44:27.490Z,23.21
2022-08-29T10:45:27.511Z,23.20
2022-08-29T10:46:27.456Z,23.20
2022-08-29T10:47:27.664Z,23.20
2022-08-29T10:48:27.626Z,23.20
2022-08-29T10:49:27.396Z,23.18
2022-08-29T10:50:43.570Z,23.20
2022-08-29T10:51:28.380Z,23.20
2022-08-29T10:52:27.377Z,23.18
2022-08-29T10:53:28.545Z,23.18
2022-08-29T10:54:27.416Z,23.17
2022-08-29T10:55:27.346Z,23.18
2022-08-29T10:56:27.325Z,23.17
2022-08-29T10:57:27.334Z,23.15
2022-08-29T10:58:27.330Z,23.17
2022-08-29T10:59:27.329Z,23.17
2022-08-29T11:00:27.270Z,23.13
2022-08-29T11:01:27.317Z,23.17
2022-08-29T11:02:27.276Z,23.15
2022-08-29T11:03:27.334Z,23.13
2022-08-29T11:04:27.308Z,23.15
2022-08-29T11:05:27.240Z,23.17
2022-08-29T11:06:27.248Z,23.15
2022-08-29T11:07:27.227Z,23.15
2022-08-29T11:08:27.196Z,23.17
2022-08-29T11:09:27.204Z,23.17
2022-08-29T11:10:27.822Z,23.17
2022-08-29T11:11:27.167Z,23.17
2022-08-29T11:12:27.172Z,23.18
2022-08-29T11:13:27.179Z,23.17
2022-08-29T11:14:27.182Z,23.18
2022-08-29T11:15:27.117Z,23.17
2022-08-29T11:16:27.191Z,23.18
2022-08-29T11:17:27.112Z,23.17
2022-08-29T11:18:27.093Z,23.18
2022-08-29T11:19:27.081Z,23.17
2022-08-29T11:20:27.066Z,23.18
2022-08-29T11:21:27.436Z,23.18
2022-08-29T11:22:27.048Z,23.18
2022-08-29T11:23:27.075Z,23.20
2022-08-29T11:24:30.626Z,23.18
2022-08-29T11:25:28.143Z,23.20
2022-08-29T11:26:27.009Z,23.21
2022-08-29T11:27:27.059Z,23.20
2022-08-29T11:28:26.999Z,23.21
2022-08-29T11:29:27.845Z,23.20
2022-08-29T11:30:27.012Z,23.21
2022-08-29T11:31:27.002Z,23.21
2022-08-29T11:32:26.996Z,23.21
2022-08-29T11:33:26.960Z,23.23
2022-08-29T11:34:26.923Z,23.23
2022-08-29T11:35:26.956Z,23.23
2022-08-29T11:36:26.920Z,23.25
2022-08-29T11:37:26.897Z,23.24
2022-08-29T11:38:26.926Z,23.25
2022-08-29T11:39:26.870Z,23.25
2022-08-29T11:41:28.782Z,23.27
2022-08-29T11:43:27.833Z,23.32
2022-08-29T11:44:26.807Z,23.31
2022-08-29T11:45:27.216Z,23.32
2022-08-29T11:46:27.819Z,23.34
2022-08-29T11:47:26.789Z,23.36
2022-08-29T11:48:27.511Z,23.36
2022-08-29T11:49:36.481Z,23.34
2022-08-29T11:50:26.776Z,23.39
2022-08-29T11:51:26.738Z,23.37
2022-08-29T11:52:26.736Z,23.39
2022-08-29T11:53:26.704Z,23.40
2022-08-29T11:54:27.332Z,23.41
2022-08-29T11:55:26.724Z,23.41
2022-08-29T11:56:27.907Z,23.43
2022-08-29T11:57:26.673Z,23.43
2022-08-29T11:58:26.724Z,23.44
2022-08-29T11:59:26.676Z,23.46
2022-08-29T12:01:26.637Z,23.46
2022-08-29T12:02:26.668Z,23.44
2022-08-29T12:03:28.885Z,23.47
2022-08-29T12:04:26.620Z,23.47
2022-08-29T12:05:26.733Z,23.46
2022-08-29T12:06:26.625Z,23.47
2022-08-29T12:07:26.584Z,23.47
2022-08-29T12:08:36.522Z,23.48
2022-08-29T12:09:27.556Z,23.48
2022-08-29T12:10:26.567Z,23.47
2022-08-29T12:11:26.542Z,23.50
2022-08-29T12:12:26.525Z,23.50
2022-08-29T12:13:26.528Z,23.50
2022-08-29T12:14:26.502Z,23.51
2022-08-29T12:15:26.521Z,23.51
2022-08-29T12:16:26.576Z,23.54
2022-08-29T12:17:31.961Z,23.54
2022-08-29T12:18:27.441Z,23.54
2022-08-29T12:19:26.448Z,23.55
2022-08-29T12:20:26.424Z,23.55
2022-08-29T12:21:26.436Z,23.55
2022-08-29T12:22:26.413Z,23.55
2022-08-29T12:23:26.406Z,23.55
2022-08-29T12:24:26.418Z,23.55
2022-08-29T12:25:26.397Z,23.55
2022-08-29T12:26:26.396Z,23.56
2022-08-29T12:27:26.344Z,23.56
2022-08-29T12:28:26.352Z,23.56
2022-08-29T12:29:26.338Z,23.56
2022-08-29T12:30:26.347Z,23.58
2022-08-29T12:31:26.383Z,23.56
2022-08-29T12:32:31.031Z,23.56
2022-08-29T12:33:27.322Z,23.58
2022-08-29T12:34:26.293Z,23.56
2022-08-29T12:35:26.261Z,23.55
2022-08-29T12:36:26.252Z,23.58
2022-08-29T12:37:26.235Z,23.55
2022-08-29T12:38:26.259Z,23.56
2022-08-29T12:39:26.245Z,23.55
2022-08-29T12:40:26.283Z,23.56
2022-08-29T12:41:26.208Z,23.55
2022-08-29T12:42:26.200Z,23.54
2022-08-29T12:43:26.171Z,23.55
2022-08-29T12:44:26.174Z,23.55
2022-08-29T12:45:26.142Z,23.54
2022-08-29T12:46:26.221Z,23.55
2022-08-29T12:47:26.124Z,23.55
2022-08-29T12:48:26.129Z,23.55
2022-08-29T12:49:26.109Z,23.55
2022-08-29T12:50:26.108Z,23.55
2022-08-29T12:51:26.105Z,23.54
2022-08-29T12:52:26.094Z,23.55
2022-08-29T12:53:26.104Z,23.54
2022-08-29T12:54:26.076Z,23.56
2022-08-29T12:55:28.819Z,23.55